Time;durP1;ratioP1;P1;durP2;ratioP2;P2;SDS_P1;SDS_P2;PMS_P1;PMS_P2;Temp;Humidity;BMP_temperature;BMP_pressure;BME280_temperature;BME280_humidity;BME280_pressure;Samples;Min_cycle;Max_cycle;Signal;HPM_P1;HPM_P2
2022/12/22 03:26:43;;;;;;;0.38;0.38;;;;;;;14.45;63.79;98404.91;7396103;19;20019;-59
2022/12/22 03:29:09;;;;;;;0.10;0.10;;;;;;;14.47;63.30;98399.53;7397125;19;20026;-59
2022/12/22 03:31:35;;;;;;;0.10;0.10;;;;;;;14.48;63.38;98403.84;7397247;19;20015;-59
2022/12/22 03:34:01;;;;;;;1.52;0.30;;;;;;;14.23;63.59;98403.22;7396759;19;20021;-61
2022/12/22 03:36:27;;;;;;;0.38;0.38;;;;;;;14.07;63.81;98401.50;7397070;19;20014;-60
2022/12/22 03:38:53;;;;;;;0.95;0.35;;;;;;;13.95;63.84;98399.38;7395119;19;20010;-59
2022/12/22 03:46:48;;;;;;;1.85;0.90;;;;;;;13.87;64.09;98410.47;7395698;19;20041;-60
2022/12/22 03:49:15;;;;;;;0.20;0.20;;;;;;;13.92;63.52;98406.06;7397767;19;20486;-60
2022/12/22 03:51:46;;;;;;;0.20;0.20;;;;;;;13.94;63.77;98409.09;7396494;19;20070;-59
2022/12/22 03:54:16;;;;;;;0.25;0.25;;;;;;;13.88;63.68;98405.63;7399949;19;20018;-59
2022/12/22 03:56:42;;;;;;;0.43;0.17;;;;;;;13.83;63.81;98409.25;7395813;19;20011;-59
2022/12/22 03:59:09;;;;;;;0.45;0.25;;;;;;;13.14;64.61;98412.03;7396848;19;20459;-60
2022/12/22 04:01:39;;;;;;;1.17;0.30;;;;;;;12.44;66.38;98408.25;7395666;19;20014;-60
2022/12/22 04:04:05;;;;;;;0.20;0.20;;;;;;;12.19;67.62;98409.53;7394382;19;20018;-60
2022/12/22 04:06:31;;;;;;;0.25;0.20;;;;;;;12.19;67.65;98415.09;7395384;19;20010;-59
2022/12/22 04:08:57;;;;;;;3.30;1.15;;;;;;;12.02;68.25;98406.09;7393163;19;20025;-59
2022/12/22 04:14:08;;;;;;;7.80;1.45;;;;;;;12.08;68.49;98410.34;7394552;19;20530;-60
2022/12/22 04:16:34;;;;;;;2.60;0.80;;;;;;;12.85;66.83;98414.38;7395951;19;20010;-60
2022/12/22 04:19:00;;;;;;;0.75;0.50;;;;;;;12.50;66.60;98422.91;7396059;19;20011;-59
2022/12/22 04:21:26;;;;;;;0.57;0.57;;;;;;;12.89;66.73;98414.09;7394529;19;20022;-59
2022/12/22 04:23:53;;;;;;;0.17;0.17;;;;;;;13.20;65.49;98413.47;7394893;19;20033;-59
2022/12/22 04:26:22;;;;;;;0.30;0.30;;;;;;;13.24;64.86;98422.31;7394392;19;20074;-60
2022/12/22 04:28:49;;;;;;;0.47;0.10;;;;;;;13.25;65.30;98423.84;7395110;19;20014;-60
2022/12/22 04:31:15;;;;;;;0.20;0.20;;;;;;;13.30;65.70;98434.19;7393975;19;20010;-59
2022/12/22 04:33:41;;;;;;;0.50;0.50;;;;;;;12.53;67.76;98438.63;7398426;19;20011;-59
2022/12/22 04:36:08;;;;;;;0.63;0.63;;;;;;;13.41;66.66;98431.22;7394529;19;20042;-59
2022/12/22 04:38:35;;;;;;;0.63;0.45;;;;;;;13.56;66.75;98430.75;7393877;19;20344;-59
2022/12/22 04:41:01;;;;;;;5.32;0.40;;;;;;;13.74;66.48;98423.63;7395372;19;20019;-60
2022/12/22 04:43:28;;;;;;;0.40;0.32;;;;;;;13.88;66.19;98425.94;7398545;19;20007;-60
2022/12/22 04:45:55;;;;;;;0.35;0.35;;;;;;;13.99;65.70;98411.06;7391648;19;20015;-59
2022/12/22 04:48:23;;;;;;;0.63;0.63;;;;;;;14.07;65.49;98406.31;7392683;19;20025;-59
2022/12/22 04:50:50;;;;;;;1.35;0.32;;;;;;;14.31;64.96;98398.53;7397463;19;20017;-59
2022/12/22 04:53:17;;;;;;;6.22;0.57;;;;;;;14.27;64.74;98391.72;7397590;19;20050;-59
2022/12/22 04:55:47;;;;;;;1.55;0.30;;;;;;;14.46;64.51;98386.81;7393583;19;20377;-60
2022/12/22 04:58:14;;;;;;;0.25;0.17;;;;;;;14.41;64.76;98380.03;7391748;19;20361;-60
2022/12/22 05:00:40;;;;;;;0.30;0.30;;;;;;;14.33;64.45;98379.16;7393641;19;20019;-59
2022/12/22 05:03:06;;;;;;;5.07;0.98;;;;;;;14.21;64.25;98379.84;7396778;19;20011;-59
2022/12/22 05:05:33;;;;;;;0.80;0.80;;;;;;;14.14;64.74;98378.44;7389487;19;20410;-59
2022/12/22 05:08:00;;;;;;;0.20;0.20;;;;;;;14.11;64.72;98384.38;7393643;19;20037;-60
2022/12/22 05:10:26;;;;;;;0.50;0.50;;;;;;;14.03;65.17;98383.50;7396131;19;20040;-60
2022/12/22 05:12:55;;;;;;;0.98;0.75;;;;;;;14.01;65.35;98386.81;7395708;19;20040;-59
2022/12/22 05:15:28;;;;;;;0.20;0.20;;;;;;;14.29;65.19;98389.19;7391958;19;20040;-59
2022/12/22 05:17:55;;;;;;;2.75;1.00;;;;;;;14.25;65.62;98399.91;7393149;19;20011;-59
2022/12/22 05:20:22;;;;;;;0.40;0.17;;;;;;;14.02;66.84;98405.13;7395905;19;20022;-59
2022/12/22 05:22:49;;;;;;;4.85;1.38;;;;;;;14.26;66.67;98407.78;7395421;19;20342;-60
2022/12/22 05:25:16;;;;;;;0.90;0.47;;;;;;;14.33;66.47;98407.19;7389239;19;20675;-60
2022/12/22 05:27:43;;;;;;;0.30;0.30;;;;;;;14.18;66.53;98411.75;7391613;19;20010;-59
2022/12/22 05:30:10;;;;;;;0.75;0.73;;;;;;;14.28;66.98;98410.03;7392338;19;20343;-59
2022/12/22 05:32:37;;;;;;;0.40;0.40;;;;;;;15.64;64.09;98409.09;7394142;19;20014;-59
2022/12/22 05:35:04;;;;;;;1.40;0.30;;;;;;;16.20;62.76;98409.25;7392993;19;20463;-60
2022/12/22 05:37:30;;;;;;;0.30;0.25;;;;;;;16.36;62.33;98410.91;7392266;19;20021;-59
2022/12/22 05:39:56;;;;;;;0.88;0.20;;;;;;;16.31;61.79;98406.16;7392530;19;20036;-60
2022/12/22 05:42:35;;;;;;;2.38;0.57;;;;;;;16.55;61.34;98400.19;7392925;19;20017;-59
2022/12/22 05:45:08;;;;;;;0.55;0.35;;;;;;;16.55;61.28;98391.75;7390017;19;20010;-59
2022/12/22 05:47:35;;;;;;;11.88;0.63;;;;;;;16.76;60.91;98396.59;7390439;19;20030;-59
2022/12/22 05:50:01;;;;;;;0.20;0.20;;;;;;;16.67;61.28;98401.41;7394658;19;20010;-59
2022/12/22 05:52:27;;;;;;;0.68;0.68;;;;;;;16.75;61.40;98400.69;7393922;19;20011;-60
2022/12/22 05:54:53;;;;;;;1.02;0.65;;;;;;;16.95;60.86;98402.69;7397392;19;20015;-60
2022/12/22 05:57:20;;;;;;;0.20;0.20;;;;;;;17.29;60.19;98397.59;7394162;19;20014;-59
2022/12/22 05:59:46;;;;;;;0.90;0.88;;;;;;;17.31;59.80;98392.16;7391737;19;20015;-59
2022/12/22 06:02:12;;;;;;;0.10;0.10;;;;;;;17.58;58.87;98393.41;7392650;19;20030;-59
2022/12/22 06:04:38;;;;;;;0.20;0.20;;;;;;;17.59;58.36;98400.53;7390225;19;20374;-59
2022/12/22 06:07:04;;;;;;;3.20;1.17;;;;;;;17.47;58.72;98405.00;7391151;19;20082;-60
2022/12/22 06:09:31;;;;;;;3.40;0.63;;;;;;;17.76;58.22;98389.50;7389194;19;20070;-60
2022/12/22 06:11:57;;;;;;;1.20;0.55;;;;;;;17.88;58.34;98387.84;7391969;19;20022;-59
2022/12/22 06:14:23;;;;;;;1.38;0.60;;;;;;;17.82;58.63;98390.06;7388196;19;20530;-59
2022/12/22 06:16:49;;;;;;;0.28;0.28;;;;;;;18.18;58.14;98389.94;7389216;19;20091;-59
2022/12/22 06:19:15;;;;;;;2.38;0.80;;;;;;;18.34;58.09;98399.13;7390988;19;20011;-59
2022/12/22 06:21:41;;;;;;;3.83;1.92;;;;;;;18.21;58.21;98399.31;7390201;19;20027;-60
2022/12/22 06:24:08;;;;;;;3.50;1.30;;;;;;;18.25;57.99;98397.63;7393130;19;20010;-60
2022/12/22 06:26:34;;;;;;;1.55;0.90;;;;;;;18.47;57.71;98407.44;7391988;19;20018;-59
2022/12/22 06:29:00;;;;;;;2.30;0.75;;;;;;;18.28;57.95;98402.13;7394212;19;20023;-59
2022/12/22 06:31:26;;;;;;;0.40;0.32;;;;;;;18.11;58.17;98388.59;7394276;19;20007;-60
2022/12/22 06:33:52;;;;;;;0.13;0.13;;;;;;;18.33;57.94;98389.16;7393484;19;20015;-59
2022/12/22 06:36:18;;;;;;;1.10;0.98;;;;;;;18.48;57.69;98386.38;7393519;19;20025;-59
2022/12/22 06:38:44;;;;;;;3.53;1.05;;;;;;;18.52;57.30;98395.94;7393481;19;20018;-59
2022/12/22 06:41:13;;;;;;;0.22;0.22;;;;;;;18.35;57.48;98383.72;7393258;19;20049;-59
2022/12/22 06:43:39;;;;;;;1.52;0.50;;;;;;;18.29;57.51;98385.97;7393738;19;20010;-60
2022/12/22 06:46:05;;;;;;;0.45;0.45;;;;;;;18.27;57.66;98382.97;7391260;19;20010;-59
2022/12/22 06:48:32;;;;;;;0.10;0.10;;;;;;;18.27;57.50;98374.53;7394528;19;20018;-59
2022/12/22 06:50:59;;;;;;;0.15;0.15;;;;;;;18.18;57.89;98370.97;7393412;19;20030;-59
2022/12/22 06:53:26;;;;;;;1.77;0.55;;;;;;;18.32;57.85;98376.41;7394512;19;20015;-60
2022/12/22 06:55:52;;;;;;;3.40;0.55;;;;;;;18.36;57.54;98360.63;7390242;19;20450;-60
2022/12/22 06:58:18;;;;;;;1.33;1.23;;;;;;;18.65;56.94;98361.16;7389427;19;20011;-59
2022/12/22 07:00:47;;;;;;;1.08;0.63;;;;;;;18.76;56.80;98355.09;7389938;19;20070;-59
2022/12/22 07:03:13;;;;;;;0.38;0.35;;;;;;;18.67;57.00;98364.16;7392794;19;20021;-59
2022/12/22 07:05:39;;;;;;;1.35;0.60;;;;;;;19.02;56.84;98373.66;7388753;19;20018;-59
2022/12/22 07:08:05;;;;;;;3.40;0.40;;;;;;;19.01;56.33;98387.03;7389439;19;20024;-59
2022/12/22 07:13:19;;;;;;;0.50;0.50;;;;;;;19.01;56.93;98398.31;7390376;19;20011;-59
2022/12/22 07:15:46;;;;;;;0.45;0.30;;;;;;;19.07;56.81;98395.28;7388084;19;20359;-59
2022/12/22 07:18:13;;;;;;;0.28;0.28;;;;;;;19.31;56.42;98386.91;7389849;19;20066;-59
2022/12/22 07:20:39;;;;;;;0.77;0.47;;;;;;;19.70;55.99;98381.84;7393719;19;20438;-59
2022/12/22 07:23:05;;;;;;;1.23;1.13;;;;;;;20.63;54.35;98382.84;7400130;19;20018;-59
2022/12/22 07:25:31;;;;;;;1.65;0.52;;;;;;;20.91;53.00;98393.66;7397898;19;20343;-60
2022/12/22 07:27:57;;;;;;;1.30;0.70;;;;;;;21.16;52.28;98392.88;7399353;19;20018;-59
2022/12/22 07:30:23;;;;;;;0.40;0.40;;;;;;;21.20;52.27;98398.84;7400045;19;20010;-58
2022/12/22 07:32:50;;;;;;;4.72;0.98;;;;;;;21.05;51.90;98391.28;7397527;19;20023;-58
2022/12/22 07:35:16;;;;;;;5.82;1.10;;;;;;;21.21;51.89;98386.19;7400339;19;20015;-58
2022/12/22 07:37:42;;;;;;;0.88;0.88;;;;;;;21.46;51.31;98386.84;7399732;19;20542;-58
2022/12/22 07:40:08;;;;;;;5.95;0.68;;;;;;;22.23;50.09;98391.59;7398093;19;20506;-58
2022/12/22 07:42:43;;;;;;;2.05;0.52;;;;;;;22.50;49.69;98380.91;7399409;19;20080;-59
2022/12/22 07:45:12;;;;;;;0.40;0.20;;;;;;;22.99;48.88;98385.34;7397310;19;20048;-59
2022/12/22 07:47:38;;;;;;;2.95;1.17;;;;;;;23.34;47.33;98375.22;7399083;19;20011;-58
2022/12/22 07:50:24;;;;;;;1.10;0.57;;;;;;;23.18;47.41;98379.66;7398354;19;20017;-58
2022/12/22 07:52:58;;;;;;;0.57;0.57;;;;;;;22.84;47.30;98368.59;7398944;19;20018;-58
2022/12/22 07:55:27;;;;;;;1.80;0.52;;;;;;;23.58;46.71;98372.63;7398746;19;20006;-59
2022/12/22 07:57:53;;;;;;;0.85;0.55;;;;;;;19.75;50.40;98373.13;7395398;19;20012;-59
2022/12/22 08:00:21;;;;;;;0.25;0.22;;;;;;;18.78;54.05;98369.38;7398627;19;20015;-59
2022/12/22 08:02:49;;;;;;;2.35;0.77;;;;;;;20.14;52.39;98365.91;7397490;19;20500;-58
2022/12/22 08:05:16;;;;;;;2.08;0.75;;;;;;;19.97;52.29;98368.66;7393995;19;20351;-58
2022/12/22 08:07:43;;;;;;;0.90;0.90;;;;;;;19.91;52.58;98362.47;7394567;19;20034;-58
2022/12/22 08:10:10;;;;;;;2.28;0.38;;;;;;;19.79;53.04;98356.56;7394895;19;20006;-59
2022/12/22 08:12:37;;;;;;;5.03;1.20;;;;;;;19.51;53.92;98354.81;7397778;19;20070;-59
2022/12/22 08:15:05;;;;;;;2.83;1.45;;;;;;;19.37;54.66;98358.47;7395127;19;20030;-58
2022/12/22 08:17:31;;;;;;;4.78;0.77;;;;;;;19.30;55.66;98351.53;7395169;19;20014;-58
2022/12/22 08:19:57;;;;;;;1.85;0.77;;;;;;;19.44;55.29;98349.22;7394183;19;20451;-58
2022/12/22 08:22:24;;;;;;;4.45;1.25;;;;;;;19.38;55.74;98352.25;7395583;19;20010;-59
2022/12/22 08:24:50;;;;;;;0.30;0.30;;;;;;;19.49;56.15;98349.00;7392787;19;20014;-59
2022/12/22 08:27:25;;;;;;;1.15;0.32;;;;;;;19.61;56.02;98352.91;7393743;19;20018;-58
2022/12/22 08:29:55;;;;;;;4.00;1.90;;;;;;;19.74;56.46;98356.75;7395425;19;20062;-58
2022/12/22 08:32:22;;;;;;;3.60;0.60;;;;;;;19.74;56.93;98351.13;7392900;19;20034;-58
2022/12/22 08:34:50;;;;;;;0.20;0.20;;;;;;;19.57;57.63;98360.25;7394217;19;20014;-59
2022/12/22 08:37:19;;;;;;;0.30;0.30;;;;;;;19.76;57.66;98357.69;7393571;19;20010;-59
2022/12/22 08:39:48;;;;;;;1.20;1.10;;;;;;;19.91;57.57;98357.59;7393089;19;20014;-59
2022/12/22 08:42:18;;;;;;;3.83;1.08;;;;;;;20.32;57.05;98350.50;7395535;19;20044;-58
2022/12/22 08:44:46;;;;;;;2.75;1.25;;;;;;;20.37;56.82;98355.16;7391299;19;20018;-58
2022/12/22 08:47:12;;;;;;;1.42;0.80;;;;;;;20.28;57.31;98361.47;7391792;19;20010;-58
2022/12/22 08:49:39;;;;;;;2.58;0.45;;;;;;;19.93;58.02;98368.31;7393597;19;20022;-58
2022/12/22 08:52:06;;;;;;;3.05;0.85;;;;;;;20.10;58.23;98357.81;7392879;19;20018;-59
2022/12/22 08:54:32;;;;;;;1.80;0.43;;;;;;;20.12;58.85;98354.44;7396213;19;20018;-58
2022/12/22 08:56:58;;;;;;;2.88;1.13;;;;;;;20.08;58.84;98349.16;7391982;19;20010;-58
2022/12/22 08:59:24;;;;;;;7.22;1.23;;;;;;;20.04;58.82;98360.13;7391854;19;20409;-59
2022/12/22 09:01:51;;;;;;;0.40;0.40;;;;;;;19.93;59.67;98357.75;7392690;19;20014;-57
2022/12/22 09:04:19;;;;;;;9.02;1.10;;;;;;;21.94;56.78;98359.53;7391595;19;20471;-58
2022/12/22 09:06:46;;;;;;;4.95;0.85;;;;;;;21.34;58.13;98363.19;7392403;19;20010;-59
2022/12/22 09:09:14;;;;;;;1.65;0.80;;;;;;;22.88;54.66;98351.88;7392499;19;20006;-58
2022/12/22 09:11:40;;;;;;;2.20;1.23;;;;;;;23.85;51.98;98347.56;7392053;19;20021;-59
2022/12/22 09:14:07;;;;;;;1.30;1.17;;;;;;;23.59;52.19;98346.44;7389549;19;20423;-57
2022/12/22 09:16:34;;;;;;;1.77;0.90;;;;;;;22.74;53.18;98352.91;7391223;19;20344;-58
2022/12/22 09:19:01;;;;;;;2.88;1.98;;;;;;;23.11;52.84;98351.41;7391228;19;20007;-59
2022/12/22 09:21:28;;;;;;;1.25;0.75;;;;;;;23.37;52.05;98352.63;7391245;19;20034;-58
2022/12/22 09:23:56;;;;;;;8.20;1.15;;;;;;;22.67;52.58;98353.78;7390288;19;20361;-58
2022/12/22 09:26:24;;;;;;;2.70;0.77;;;;;;;22.84;52.64;98350.81;7389331;19;20654;-59
2022/12/22 09:28:50;;;;;;;0.25;0.25;;;;;;;22.87;52.65;98343.97;7390268;19;20030;-59
2022/12/22 09:31:18;;;;;;;3.85;1.00;;;;;;;23.94;51.23;98344.69;7391218;19;20011;-59
2022/12/22 09:33:44;;;;;;;0.52;0.52;;;;;;;24.33;50.51;98341.66;7394374;19;20018;-60
2022/12/22 09:36:17;;;;;;;0.90;0.47;;;;;;;23.90;50.93;98344.41;7388747;19;20029;-59
2022/12/22 09:38:43;;;;;;;0.35;0.35;;;;;;;24.36;50.21;98352.59;7390027;19;20011;-59
2022/12/22 09:41:21;;;;;;;5.97;0.82;;;;;;;24.05;50.65;98355.44;7390502;19;20034;-60
2022/12/22 09:43:47;;;;;;;2.35;0.90;;;;;;;24.17;50.66;98349.13;7394593;19;20487;-59
2022/12/22 09:46:22;;;;;;;1.20;0.57;;;;;;;24.98;49.51;98346.81;7389578;19;20015;-60
2022/12/22 09:48:48;;;;;;;2.75;0.65;;;;;;;25.07;48.68;98346.72;7390726;19;20002;-59
2022/12/22 09:51:16;;;;;;;1.90;0.98;;;;;;;22.46;52.59;98348.63;7391670;19;20011;-59
2022/12/22 09:53:45;;;;;;;1.83;0.55;;;;;;;21.81;54.18;98354.19;7394439;19;20014;-59
2022/12/22 09:56:14;;;;;;;10.35;1.60;;;;;;;21.45;55.70;98351.31;7389578;19;20368;-59
2022/12/22 09:58:41;;;;;;;4.05;1.27;;;;;;;21.81;55.25;98351.38;7388673;19;20021;-59
2022/12/22 10:01:52;;;;;;;4.20;0.82;;;;;;;20.19;58.82;98347.94;7389544;19;20051;-59
2022/12/22 10:04:44;;;;;;;0.80;0.47;;;;;;;21.48;56.57;98341.66;7383661;19;20027;-60
2022/12/22 10:07:37;;;;;;;3.33;0.43;;;;;;;21.27;56.90;98344.22;7384396;19;20019;-59
2022/12/22 10:10:13;;;;;;;7.63;1.95;;;;;;;21.07;57.85;98344.06;7388270;19;20018;-59
2022/12/22 10:12:39;;;;;;;0.85;0.40;;;;;;;21.17;58.12;98346.22;7391597;19;20014;-59
2022/12/22 10:15:10;;;;;;;3.60;0.63;;;;;;;21.35;57.65;98339.97;7389584;19;20420;-59
2022/12/22 10:17:37;;;;;;;5.05;0.88;;;;;;;21.62;57.56;98337.09;7390060;19;20360;-59
2022/12/22 10:20:26;;;;;;;0.60;0.55;;;;;;;21.97;57.60;98335.66;7392073;19;20037;-59
2022/12/22 10:23:11;;;;;;;2.20;1.25;;;;;;;21.87;57.56;98337.72;7388577;19;20011;-59
2022/12/22 10:25:55;;;;;;;0.30;0.30;;;;;;;22.11;57.73;98328.25;7386667;19;20018;-60
2022/12/22 10:28:29;;;;;;;0.30;0.30;;;;;;;21.52;58.27;98336.31;7388987;19;20010;-60
2022/12/22 10:31:21;;;;;;;0.40;0.40;;;;;;;21.73;58.43;98334.50;7388937;19;20014;-61
2022/12/22 10:33:50;;;;;;;6.22;2.30;;;;;;;21.93;58.25;98341.03;7393480;19;20018;-60
2022/12/22 10:36:26;;;;;;;5.10;1.33;;;;;;;22.06;58.01;98326.44;7389615;19;20458;-60
2022/12/22 10:39:07;;;;;;;1.40;0.63;;;;;;;21.58;58.33;98337.56;7387218;19;20030;-59
2022/12/22 10:41:44;;;;;;;2.23;0.73;;;;;;;21.50;59.48;98333.31;7389364;19;20022;-59
2022/12/22 10:44:35;;;;;;;6.32;1.13;;;;;;;21.79;59.06;98329.28;7388542;19;20015;-59
2022/12/22 10:47:13;;;;;;;;;;;;;;;21.66;59.41;98328.94;7388992;19;20018;-59
2022/12/22 10:49:44;;;;;;;11.25;1.67;;;;;;;21.49;59.33;98326.16;7388749;19;19915;-59
2022/12/22 10:52:16;;;;;;;;;;;;;;;21.33;60.10;98324.88;7390020;19;20010;-59
2022/12/22 10:54:44;;;;;;;12.43;2.33;;;;;;;21.47;59.78;98328.81;7392509;19;19930;-59
2022/12/22 10:57:13;;;;;;;18.55;2.72;;;;;;;21.40;60.33;98329.66;7393595;19;20006;-59
2022/12/22 11:00:29;;;;;;;0.40;0.40;;;;;;;20.05;62.89;98332.63;7396199;19;20002;-58
2022/12/22 11:02:57;;;;;;;5.53;0.93;;;;;;;20.10;64.48;98328.78;7397406;19;20011;-59
2022/12/22 11:05:24;;;;;;;6.13;1.27;;;;;;;20.39;64.43;98324.22;7393216;19;20011;-58
2022/12/22 11:07:50;;;;;;;0.17;0.17;;;;;;;20.66;63.96;98327.91;7395617;19;20434;-59
2022/12/22 11:10:26;;;;;;;2.33;1.17;;;;;;;20.66;63.99;98336.38;7395519;19;20022;-59
2022/12/22 11:12:59;;;;;;;0.75;0.57;;;;;;;20.10;65.43;98323.91;7397773;19;21156;-59
2022/12/22 11:15:27;;;;;;;4.95;0.75;;;;;;;20.46;65.26;98319.84;7395598;19;20018;-59
2022/12/22 11:18:12;;;;;;;2.75;0.32;;;;;;;19.87;65.99;98316.94;7395285;19;20015;-59
2022/12/22 11:21:03;;;;;;;4.07;0.95;;;;;;;20.61;65.24;98314.78;7397437;19;20030;-59
2022/12/22 11:24:11;;;;;;;2.00;0.70;;;;;;;19.56;67.98;98317.16;7398894;19;20014;-60
2022/12/22 11:27:05;;;;;;;0.30;0.30;;;;;;;20.31;66.67;98303.78;7393187;19;20027;-59
2022/12/22 11:29:48;;;;;;;4.13;0.82;;;;;;;20.72;65.99;98300.13;7394661;19;20011;-59
2022/12/22 11:32:38;;;;;;;1.65;1.15;;;;;;;20.71;65.55;98295.78;7395824;19;20034;-59
2022/12/22 11:35:23;;;;;;;1.20;0.52;;;;;;;20.80;65.63;98292.28;7394241;19;20010;-59
2022/12/22 11:37:57;;;;;;;0.55;0.50;;;;;;;20.27;67.22;98292.84;7392882;19;20022;-60
2022/12/22 11:40:38;;;;;;;1.30;0.35;;;;;;;20.96;66.11;98282.28;7394642;19;20010;-59
2022/12/22 11:43:20;;;;;;;0.50;0.25;;;;;;;21.49;64.79;98280.81;7397357;19;20485;-59
2022/12/22 11:45:55;;;;;;;;;;;;;;;21.77;63.83;98283.03;7392236;19;20010;-59
2022/12/22 11:48:47;;;;;;;0.20;0.20;;;;;;;21.87;63.68;98275.38;7392457;19;19918;-59
2022/12/22 11:51:16;;;;;;;0.22;0.22;;;;;;;21.97;62.92;98264.78;7389800;19;20059;-59
2022/12/22 11:53:51;;;;;;;0.93;0.30;;;;;;;21.95;62.80;98253.31;7395156;19;20018;-59
2022/12/22 11:56:23;;;;;;;1.40;0.40;;;;;;;21.87;63.41;98259.09;7394220;19;20014;-59
2022/12/22 11:59:11;;;;;;;4.68;0.98;;;;;;;21.93;63.52;98261.66;7392155;19;20070;-60
2022/12/22 12:01:56;;;;;;;0.10;0.00;;;;;;;21.77;63.39;98271.72;7392585;19;20479;-60
2022/12/22 12:04:34;;;;;;;0.15;0.15;;;;;;;21.45;64.18;98275.59;7392135;19;20034;-60
2022/12/22 12:07:25;;;;;;;0.40;0.40;;;;;;;21.70;63.40;98261.97;7393145;19;20030;-60
2022/12/22 12:10:17;;;;;;;1.23;0.17;;;;;;;20.81;64.52;98265.47;7394174;19;20010;-59
2022/12/22 12:12:55;;;;;;;4.78;0.65;;;;;;;19.17;69.28;98255.81;7395907;19;20018;-60
2022/12/22 12:15:36;;;;;;;1.63;0.30;;;;;;;21.02;67.25;98251.66;7391484;19;20027;-59
2022/12/22 12:18:23;;;;;;;1.52;0.60;;;;;;;21.65;65.45;98253.78;7394068;19;20007;-59
2022/12/22 12:21:04;;;;;;;2.85;0.90;;;;;;;21.87;65.11;98244.91;7393317;19;20081;-59
2022/12/22 12:23:51;;;;;;;3.15;0.40;;;;;;;21.94;64.63;98234.78;7397310;19;20034;-60
2022/12/22 12:26:41;;;;;;;1.95;0.90;;;;;;;22.33;63.66;98246.94;7395286;19;20027;-60
2022/12/22 12:29:19;;;;;;;0.25;0.20;;;;;;;21.89;64.55;98244.34;7394099;19;20015;-60
2022/12/22 12:32:03;;;;;;;0.52;0.52;;;;;;;21.89;64.39;98238.66;7395914;19;20036;-60
2022/12/22 12:34:34;;;;;;;0.60;0.50;;;;;;;21.76;64.71;98241.88;7394473;19;20739;-60
2022/12/22 12:37:20;;;;;;;0.20;0.20;;;;;;;22.01;64.55;98236.75;7393022;19;20018;-60
2022/12/22 12:39:58;;;;;;;0.32;0.32;;;;;;;22.16;63.49;98239.31;7393140;19;20017;-59
2022/12/22 12:42:28;;;;;;;0.10;0.00;;;;;;;21.82;64.08;98233.84;7394193;19;20010;-60
2022/12/22 12:44:55;;;;;;;0.43;0.22;;;;;;;21.92;64.25;98237.47;7391340;19;20043;-59
2022/12/22 12:47:34;;;;;;;0.90;0.60;;;;;;;21.96;63.97;98226.44;7391296;19;20018;-59
2022/12/22 12:50:00;;;;;;;4.10;0.47;;;;;;;21.70;64.47;98233.66;7392547;19;20014;-59
2022/12/22 12:52:38;;;;;;;0.47;0.47;;;;;;;21.93;64.36;98238.97;7394864;19;20011;-59
2022/12/22 12:55:25;;;;;;;1.33;0.52;;;;;;;22.08;64.03;98237.97;7391023;19;20087;-59
2022/12/22 12:57:52;;;;;;;1.67;0.38;;;;;;;22.17;63.65;98234.41;7394739;19;20017;-59
2022/12/22 13:00:31;;;;;;;0.35;0.35;;;;;;;22.48;63.27;98236.06;7396410;19;20014;-62
2022/12/22 13:03:08;;;;;;;1.23;0.50;;;;;;;22.61;62.84;98229.19;7395169;19;20047;-61
2022/12/22 13:05:58;;;;;;;1.83;0.52;;;;;;;22.43;62.83;98237.13;7392856;19;20015;-59
2022/12/22 13:08:31;;;;;;;9.00;0.75;;;;;;;22.62;62.19;98225.03;7392676;19;20026;-58
2022/12/22 13:10:57;;;;;;;0.63;0.63;;;;;;;22.53;62.85;98229.34;7392396;19;20040;-58
2022/12/22 13:13:24;;;;;;;1.75;1.00;;;;;;;22.32;63.13;98229.19;7395190;19;20014;-58
2022/12/22 13:15:59;;;;;;;0.63;0.57;;;;;;;22.43;62.87;98234.28;7390739;19;20324;-58
2022/12/22 13:18:25;;;;;;;1.25;0.90;;;;;;;22.29;62.29;98226.78;7390780;19;20015;-61
2022/12/22 13:21:06;;;;;;;4.43;0.50;;;;;;;22.23;62.76;98227.09;7391113;19;20092;-58
2022/12/22 13:23:39;;;;;;;0.85;0.57;;;;;;;20.30;65.95;98240.81;7395807;19;20372;-61
2022/12/22 13:26:14;;;;;;;2.30;0.80;;;;;;;18.77;72.36;98241.75;7392927;19;20496;-62
2022/12/22 13:28:47;;;;;;;0.55;0.45;;;;;;;18.63;74.21;98240.47;7391269;19;20013;-60
2022/12/22 13:31:27;;;;;;;0.85;0.60;;;;;;;18.47;76.29;98241.88;7390958;19;20075;-61
2022/12/22 13:34:06;;;;;;;0.45;0.43;;;;;;;18.52;77.18;98231.66;7390857;19;20010;-61
2022/12/22 13:36:35;;;;;;;1.65;0.80;;;;;;;18.53;78.19;98227.53;7390429;19;20018;-62
2022/12/22 13:39:04;;;;;;;0.45;0.30;;;;;;;19.67;76.03;98223.50;7389998;19;20013;-61
2022/12/22 13:41:33;;;;;;;1.60;0.85;;;;;;;20.92;70.59;98222.50;7390180;19;20015;-60
2022/12/22 13:44:06;;;;;;;0.75;0.32;;;;;;;21.34;69.36;98216.66;7390873;19;20025;-60
2022/12/22 13:46:34;;;;;;;0.75;0.75;;;;;;;21.32;68.68;98221.41;7392196;19;20014;-61
2022/12/22 13:49:03;;;;;;;1.30;0.40;;;;;;;21.31;68.55;98220.66;7390180;19;20348;-60
2022/12/22 13:51:35;;;;;;;1.15;0.52;;;;;;;21.34;68.49;98218.75;7389566;19;20025;-60
2022/12/22 13:54:07;;;;;;;0.40;0.40;;;;;;;21.60;68.11;98218.72;7392899;19;20098;-61
2022/12/22 13:56:52;;;;;;;0.30;0.30;;;;;;;21.68;67.54;98218.56;7388280;19;20007;-60
2022/12/22 13:59:25;;;;;;;2.83;1.05;;;;;;;21.65;67.60;98214.84;7389835;19;20018;-61
2022/12/22 14:01:56;;;;;;;0.63;0.32;;;;;;;21.78;67.21;98216.53;7390057;19;20028;-62
2022/12/22 14:04:23;;;;;;;2.75;0.50;;;;;;;21.54;67.25;98223.16;7390345;19;20026;-60
2022/12/22 14:06:49;;;;;;;1.65;0.50;;;;;;;21.37;67.75;98217.56;7390055;19;20014;-61
2022/12/22 14:09:22;;;;;;;1.08;1.00;;;;;;;21.32;67.80;98221.41;7388476;19;20003;-59
2022/12/22 14:12:14;;;;;;;0.22;0.22;;;;;;;21.28;68.01;98232.44;7389282;19;20013;-59
2022/12/22 14:14:43;;;;;;;1.00;0.20;;;;;;;21.21;68.49;98233.28;7389412;19;20007;-61
2022/12/22 14:17:25;;;;;;;1.10;0.52;;;;;;;21.09;68.30;98222.50;7388671;19;20019;-59
2022/12/22 14:19:55;;;;;;;1.08;0.32;;;;;;;21.09;68.49;98225.31;7390728;19;20490;-60
2022/12/22 14:22:27;;;;;;;0.20;0.20;;;;;;;21.08;69.07;98217.44;7393111;19;20018;-61
2022/12/22 14:24:57;;;;;;;5.03;0.32;;;;;;;21.00;69.06;98214.69;7389702;19;20015;-60
2022/12/22 14:27:40;;;;;;;1.55;0.47;;;;;;;21.01;69.36;98210.50;7389012;19;20014;-60
2022/12/22 14:30:16;;;;;;;0.20;0.20;;;;;;;21.11;69.54;98208.50;7391069;19;20017;-62
2022/12/22 14:32:45;;;;;;;1.38;0.32;;;;;;;21.29;69.19;98211.28;7398236;19;20010;-62
2022/12/22 14:35:24;;;;;;;1.10;0.52;;;;;;;21.31;68.68;98211.44;7396877;19;20015;-60
2022/12/22 14:38:14;;;;;;;1.15;0.68;;;;;;;21.44;68.47;98220.28;7397172;19;20035;-60
2022/12/22 14:40:42;;;;;;;0.20;0.20;;;;;;;21.63;67.62;98216.78;7396902;19;20459;-61
2022/12/22 14:43:17;;;;;;;0.73;0.73;;;;;;;21.67;67.43;98217.09;7399639;19;20070;-60
2022/12/22 14:45:48;;;;;;;2.20;0.32;;;;;;;21.40;68.11;98224.88;7393909;19;20118;-61
2022/12/22 14:48:23;;;;;;;6.65;1.85;;;;;;;21.44;68.30;98234.44;7396846;19;20043;-60
2022/12/22 14:50:50;;;;;;;0.57;0.57;;;;;;;21.91;67.37;98230.31;7395291;19;20136;-63
2022/12/22 14:53:26;;;;;;;9.30;2.80;;;;;;;22.36;65.90;98243.66;7398570;19;20010;-64
2022/12/22 14:55:52;;;;;;;5.43;2.28;;;;;;;22.56;65.62;98235.91;7398889;19;20115;-61
2022/12/22 14:58:24;;;;;;;3.67;0.98;;;;;;;22.91;65.04;98247.72;7395828;19;20011;-60
2022/12/22 15:01:12;;;;;;;0.90;0.90;;;;;;;23.18;63.77;98242.56;7395980;19;20014;-60
2022/12/22 15:03:39;;;;;;;2.55;0.85;;;;;;;23.31;63.56;98227.88;7399828;19;20371;-60
2022/12/22 15:06:23;;;;;;;2.75;1.60;;;;;;;23.71;62.74;98236.44;7392858;19;20360;-60
2022/12/22 15:08:53;;;;;;;4.22;0.70;;;;;;;23.80;62.18;98226.38;7393504;19;20011;-60
2022/12/22 15:11:23;;;;;;;4.80;0.83;;;;;;;23.62;62.01;98239.31;7395266;19;20073;-60
2022/12/22 15:13:50;;;;;;;6.32;1.50;;;;;;;23.69;61.52;98238.41;7399532;19;20048;-61
2022/12/22 15:16:21;;;;;;;2.38;1.05;;;;;;;23.84;61.38;98233.09;7395346;19;20037;-60
2022/12/22 15:18:49;;;;;;;1.85;0.52;;;;;;;23.74;61.10;98237.31;7395352;19;20015;-61
2022/12/22 15:21:17;;;;;;;1.75;0.95;;;;;;;23.37;61.27;98245.38;7395303;19;20019;-60
2022/12/22 15:23:43;;;;;;;5.90;1.48;;;;;;;23.12;62.05;98245.75;7398724;19;20023;-60
2022/12/22 15:26:09;;;;;;;2.35;1.30;;;;;;;22.89;62.09;98244.75;7394062;19;20006;-55
2022/12/22 15:28:36;;;;;;;2.80;1.00;;;;;;;23.28;61.63;98240.47;7398927;19;20010;-60
2022/12/22 15:31:05;;;;;;;1.83;0.32;;;;;;;23.56;60.87;98248.19;7398831;19;20601;-60